Pohnpei, Pohnpei International Airport (PTPN)

NamePohnpei International Airport
CityPohnpei
CountryMicronesia
ICAOPTPN
IATAPNI
Altitude3 m
CoordinatesGoogle Map
Live Air TrafficLiveATC.net
METARPTPN 230350Z 35003KT 13SM -SHRA BKN017TCU OVC130 28/26 A2980 RMK TCU ALQDS LAST
2019-08-23 03:50:00 Wind: North-Northwest (350°) 1.54 m/s - Visibility: 20921.42 m - Weather: Light Showers Rain - Temperature: 28 °C - Dew point: 26 °C - Humidity: 88.9% - Pressure: 1009.14 hPa
Statistics

The table below shows the detailed information of all flights to/from Pohnpei, Pohnpei International Airport (PTPN).